sensor_id;sensor_type;location;lat;lon;timestamp;pressure;altitude;pressure_sealevel;temperature;humidity
8697;BME280;4385;48.848;8.924;2023-11-21T00:01:43;96786.38;;;17.72;100.00
8697;BME280;4385;48.848;8.924;2023-11-21T00:04:08;96782.25;;;17.68;100.00
8697;BME280;4385;48.848;8.924;2023-11-21T00:06:34;96783.13;;;17.67;100.00
8697;BME280;4385;48.848;8.924;2023-11-21T00:08:59;96776.38;;;17.66;100.00
8697;BME280;4385;48.848;8.924;2023-11-21T00:11:24;96776.44;;;17.64;100.00
8697;BME280;4385;48.848;8.924;2023-11-21T00:13:51;96769.69;;;17.62;100.00
8697;BME280;4385;48.848;8.924;2023-11-21T00:16:16;96764.66;;;17.60;100.00
8697;BME280;4385;48.848;8.924;2023-11-21T00:18:41;96762.19;;;17.57;100.00
8697;BME280;4385;48.848;8.924;2023-11-21T00:21:08;96759.63;;;17.57;100.00
8697;BME280;4385;48.848;8.924;2023-11-21T00:23:34;96763.75;;;17.63;100.00
8697;BME280;4385;48.848;8.924;2023-11-21T00:25:59;96765.41;;;17.64;100.00
8697;BME280;4385;48.848;8.924;2023-11-21T00:28:25;96768.03;;;17.61;100.00
8697;BME280;4385;48.848;8.924;2023-11-21T00:30:51;96773.19;;;17.59;100.00
8697;BME280;4385;48.848;8.924;2023-11-21T00:33:16;96780.78;;;17.61;100.00
8697;BME280;4385;48.848;8.924;2023-11-21T00:35:41;96779.03;;;17.63;100.00
8697;BME280;4385;48.848;8.924;2023-11-21T00:38:07;96772.16;;;17.65;100.00
8697;BME280;4385;48.848;8.924;2023-11-21T00:40:33;96768.84;;;17.63;100.00
8697;BME280;4385;48.848;8.924;2023-11-21T00:42:58;96770.53;;;17.62;100.00
8697;BME280;4385;48.848;8.924;2023-11-21T00:45:24;96768.03;;;17.61;100.00
8697;BME280;4385;48.848;8.924;2023-11-21T00:47:50;96768.03;;;17.61;100.00
8697;BME280;4385;48.848;8.924;2023-11-21T00:50:16;96777.25;;;17.65;100.00
8697;BME280;4385;48.848;8.924;2023-11-21T00:52:41;96773.78;;;17.67;100.00
8697;BME280;4385;48.848;8.924;2023-11-21T00:55:07;96777.06;;;17.71;100.00
8697;BME280;4385;48.848;8.924;2023-11-21T00:57:33;96772.84;;;17.70;100.00
8697;BME280;4385;48.848;8.924;2023-11-21T00:59:58;96772.81;;;17.72;100.00
8697;BME280;4385;48.848;8.924;2023-11-21T01:02:24;96777.06;;;17.71;100.00
8697;BME280;4385;48.848;8.924;2023-11-21T01:04:50;96777.94;;;17.70;100.00
8697;BME280;4385;48.848;8.924;2023-11-21T01:07:15;96773.75;;;17.69;100.00
8697;BME280;4385;48.848;8.924;2023-11-21T01:09:41;96779.59;;;17.71;100.00
8697;BME280;4385;48.848;8.924;2023-11-21T01:12:06;96778.84;;;17.69;100.00
8697;BME280;4385;48.848;8.924;2023-11-21T01:14:32;96772.94;;;17.67;100.00
8697;BME280;4385;48.848;8.924;2023-11-21T01:16:57;96774.69;;;17.65;100.00
8697;BME280;4385;48.848;8.924;2023-11-21T01:19:22;96769.69;;;17.62;100.00
8697;BME280;4385;48.848;8.924;2023-11-21T01:21:48;96774.03;;;17.60;100.00
8697;BME280;4385;48.848;8.924;2023-11-21T01:24:13;96777.44;;;17.58;100.00
8697;BME280;4385;48.848;8.924;2023-11-21T01:26:38;96771.59;;;17.55;100.00
8697;BME280;4385;48.848;8.924;2023-11-21T01:29:03;96775.94;;;17.51;100.00
8697;BME280;4385;48.848;8.924;2023-11-21T01:31:29;96770.94;;;17.48;100.00
8697;BME280;4385;48.848;8.924;2023-11-21T01:33:55;96770.16;;;17.46;100.00
8697;BME280;4385;48.848;8.924;2023-11-21T01:36:21;96767.59;;;17.46;100.00
8697;BME280;4385;48.848;8.924;2023-11-21T01:38:46;96773.50;;;17.48;100.00
8697;BME280;4385;48.848;8.924;2023-11-21T01:41:13;96764.19;;;17.47;100.00
8697;BME280;4385;48.848;8.924;2023-11-21T01:43:39;96772.59;;;17.49;100.00
8697;BME280;4385;48.848;8.924;2023-11-21T01:46:05;96760.75;;;17.48;100.00
8697;BME280;4385;48.848;8.924;2023-11-21T01:48:31;96770.06;;;17.49;100.00
8697;BME280;4385;48.848;8.924;2023-11-21T01:50:57;96763.22;;;17.51;100.00
8697;BME280;4385;48.848;8.924;2023-11-21T01:53:24;96756.41;;;17.52;100.00
8697;BME280;4385;48.848;8.924;2023-11-21T01:55:51;96758.91;;;17.53;100.00
8697;BME280;4385;48.848;8.924;2023-11-21T01:58:17;96758.88;;;17.55;100.00
8697;BME280;4385;48.848;8.924;2023-11-21T02:00:42;96757.13;;;17.55;100.00
8697;BME280;4385;48.848;8.924;2023-11-21T02:03:08;96761.41;;;17.55;100.00
8697;BME280;4385;48.848;8.924;2023-11-21T02:05:35;96763.16;;;17.53;100.00
8697;BME280;4385;48.848;8.924;2023-11-21T02:08:01;96770.00;;;17.51;100.00
8697;BME280;4385;48.848;8.924;2023-11-21T02:10:27;96768.41;;;17.48;100.00
8697;BME280;4385;48.848;8.924;2023-11-21T02:12:54;96765.94;;;17.45;100.00
8697;BME280;4385;48.848;8.924;2023-11-21T02:15:21;96760.00;;;17.44;100.00
8697;BME280;4385;48.848;8.924;2023-11-21T02:17:48;96755.81;;;17.43;100.00
8697;BME280;4385;48.848;8.924;2023-11-21T02:20:17;96765.16;;;17.43;100.00
8697;BME280;4385;48.848;8.924;2023-11-21T02:22:52;96756.69;;;17.42;100.00
8697;BME280;4385;48.848;8.924;2023-11-21T02:25:29;96768.59;;;17.42;100.00
8697;BME280;4385;48.848;8.924;2023-11-21T02:28:01;96771.13;;;17.42;100.00
8697;BME280;4385;48.848;8.924;2023-11-21T02:30:28;96768.59;;;17.42;100.00
8697;BME280;4385;48.848;8.924;2023-11-21T02:32:54;96764.38;;;17.41;100.00
8697;BME280;4385;48.848;8.924;2023-11-21T02:35:20;96766.03;;;17.42;100.00
8697;BME280;4385;48.848;8.924;2023-11-21T02:37:51;96762.66;;;17.41;100.00
8697;BME280;4385;48.848;8.924;2023-11-21T02:40:17;96756.78;;;17.39;100.00
8697;BME280;4385;48.848;8.924;2023-11-21T02:42:46;96755.91;;;17.40;100.00
8697;BME280;4385;48.848;8.924;2023-11-21T02:45:14;96756.78;;;17.39;100.00
8697;BME280;4385;48.848;8.924;2023-11-21T02:47:42;96750.81;;;17.40;100.00
8697;BME280;4385;48.848;8.924;2023-11-21T02:50:08;96749.09;;;17.41;100.00
8697;BME280;4385;48.848;8.924;2023-11-21T02:52:34;96750.75;;;17.42;100.00
8697;BME280;4385;48.848;8.924;2023-11-21T02:55:00;96747.41;;;17.40;100.00
8697;BME280;4385;48.848;8.924;2023-11-21T02:57:25;96749.97;;;17.40;100.00
8697;BME280;4385;48.848;8.924;2023-11-21T02:59:51;96751.69;;;17.39;100.00
8697;BME280;4385;48.848;8.924;2023-11-21T03:02:16;96750.84;;;17.39;100.00
8697;BME280;4385;48.848;8.924;2023-11-21T03:04:41;96754.19;;;17.41;100.00
8697;BME280;4385;48.848;8.924;2023-11-21T03:07:08;96750.81;;;17.40;100.00
8697;BME280;4385;48.848;8.924;2023-11-21T03:09:33;96755.00;;;17.41;100.00
8697;BME280;4385;48.848;8.924;2023-11-21T03:11:59;96747.38;;;17.41;100.00
8697;BME280;4385;48.848;8.924;2023-11-21T03:14:24;96750.75;;;17.42;100.00
8697;BME280;4385;48.848;8.924;2023-11-21T03:16:49;96745.75;;;17.39;100.00
8697;BME280;4385;48.848;8.924;2023-11-21T03:19:15;96754.28;;;17.38;100.00
8697;BME280;4385;48.848;8.924;2023-11-21T03:21:40;96752.59;;;17.37;100.00
8697;BME280;4385;48.848;8.924;2023-11-21T03:24:06;96751.69;;;17.39;100.00
8697;BME280;4385;48.848;8.924;2023-11-21T03:26:32;96758.56;;;17.36;100.00
8697;BME280;4385;48.848;8.924;2023-11-21T03:28:57;96762.00;;;17.35;100.00
8697;BME280;4385;48.848;8.924;2023-11-21T03:31:23;96766.25;;;17.34;100.00
8697;BME280;4385;48.848;8.924;2023-11-21T03:33:48;96763.75;;;17.32;100.00
8697;BME280;4385;48.848;8.924;2023-11-21T03:36:13;96764.69;;;17.30;100.00
8697;BME280;4385;48.848;8.924;2023-11-21T03:38:40;96759.66;;;17.28;100.00
8697;BME280;4385;48.848;8.924;2023-11-21T03:41:07;96764.75;;;17.28;100.00
8697;BME280;4385;48.848;8.924;2023-11-21T03:43:32;96760.53;;;17.26;100.00
8697;BME280;4385;48.848;8.924;2023-11-21T03:45:57;96761.38;;;17.26;100.00
8697;BME280;4385;48.848;8.924;2023-11-21T03:48:22;96763.91;;;17.28;100.00
8697;BME280;4385;48.848;8.924;2023-11-21T03:50:48;96767.25;;;17.30;100.00
8697;BME280;4385;48.848;8.924;2023-11-21T03:53:13;96773.94;;;17.32;100.00
8697;BME280;4385;48.848;8.924;2023-11-21T03:55:39;96769.75;;;17.31;100.00
8697;BME280;4385;48.848;8.924;2023-11-21T03:58:04;96777.44;;;17.30;100.00
8697;BME280;4385;48.848;8.924;2023-11-21T04:00:29;96779.03;;;17.32;100.00
8697;BME280;4385;48.848;8.924;2023-11-21T04:02:55;96767.19;;;17.31;100.00
8697;BME280;4385;48.848;8.924;2023-11-21T04:05:21;96767.97;;;17.33;100.00
8697;BME280;4385;48.848;8.924;2023-11-21T04:07:49;96768.06;;;17.30;100.00
8697;BME280;4385;48.848;8.924;2023-11-21T04:10:16;96769.75;;;17.31;100.00
8697;BME280;4385;48.848;8.924;2023-11-21T04:12:41;96771.44;;;17.31;100.00
8697;BME280;4385;48.848;8.924;2023-11-21T04:15:07;96781.66;;;17.29;100.00
8697;BME280;4385;48.848;8.924;2023-11-21T04:17:34;96785.16;;;17.27;100.00
8697;BME280;4385;48.848;8.924;2023-11-21T04:19:59;96784.34;;;17.25;100.00
8697;BME280;4385;48.848;8.924;2023-11-21T04:22:25;96785.28;;;17.22;100.00
8697;BME280;4385;48.848;8.924;2023-11-21T04:24:50;96771.66;;;17.23;100.00
8697;BME280;4385;48.848;8.924;2023-11-21T04:27:15;96779.34;;;17.22;100.00
8697;BME280;4385;48.848;8.924;2023-11-21T04:29:43;96783.59;;;17.21;100.00
8697;BME280;4385;48.848;8.924;2023-11-21T04:32:08;96786.19;;;17.19;100.00
8697;BME280;4385;48.848;8.924;2023-11-21T04:34:33;96778.53;;;17.19;100.00
8697;BME280;4385;48.848;8.924;2023-11-21T04:36:59;96787.03;;;17.20;100.00
8697;BME280;4385;48.848;8.924;2023-11-21T04:39:26;96790.47;;;17.19;100.00
8697;BME280;4385;48.848;8.924;2023-11-21T04:41:51;96800.69;;;17.17;100.00
8697;BME280;4385;48.848;8.924;2023-11-21T04:44:16;96788.81;;;17.16;100.00
8697;BME280;4385;48.848;8.924;2023-11-21T04:46:42;96788.00;;;17.16;100.00
8697;BME280;4385;48.848;8.924;2023-11-21T04:49:07;96793.06;;;17.17;100.00
8697;BME280;4385;48.848;8.924;2023-11-21T04:51:32;96788.78;;;17.18;100.00
8697;BME280;4385;48.848;8.924;2023-11-21T04:53:58;96781.94;;;17.20;100.00
8697;BME280;4385;48.848;8.924;2023-11-21T04:56:23;96779.38;;;17.20;100.00
8697;BME280;4385;48.848;8.924;2023-11-21T04:58:48;96782.78;;;17.20;100.00
8697;BME280;4385;48.848;8.924;2023-11-21T05:01:14;96789.56;;;17.20;100.00
8697;BME280;4385;48.848;8.924;2023-11-21T05:03:39;96790.47;;;17.19;100.00
8697;BME280;4385;48.848;8.924;2023-11-21T05:06:04;96787.91;;;17.19;100.00
8697;BME280;4385;48.848;8.924;2023-11-21T05:08:30;96789.63;;;17.18;100.00
8697;BME280;4385;48.848;8.924;2023-11-21T05:10:55;96795.56;;;17.19;100.00
8697;BME280;4385;48.848;8.924;2023-11-21T05:13:21;96791.28;;;17.19;100.00
8697;BME280;4385;48.848;8.924;2023-11-21T05:15:47;96796.44;;;17.16;100.00
8697;BME280;4385;48.848;8.924;2023-11-21T05:18:12;96805.81;;;17.16;100.00
8697;BME280;4385;48.848;8.924;2023-11-21T05:20:39;96807.56;;;17.14;100.00
8697;BME280;4385;48.848;8.924;2023-11-21T05:23:06;96810.13;;;17.14;100.00
8697;BME280;4385;48.848;8.924;2023-11-21T05:25:31;96809.31;;;17.12;100.00
8697;BME280;4385;48.848;8.924;2023-11-21T05:27:57;96811.03;;;17.11;100.00
8697;BME280;4385;48.848;8.924;2023-11-21T05:30:26;96814.41;;;17.12;100.00
8697;BME280;4385;48.848;8.924;2023-11-21T05:32:51;96817.75;;;17.14;100.00
8697;BME280;4385;48.848;8.924;2023-11-21T05:35:17;96817.75;;;17.14;100.00
8697;BME280;4385;48.848;8.924;2023-11-21T05:37:43;96823.63;;;17.16;100.00
8697;BME280;4385;48.848;8.924;2023-11-21T05:40:09;96828.72;;;17.16;100.00
8697;BME280;4385;48.848;8.924;2023-11-21T05:42:35;96823.59;;;17.17;100.00
8697;BME280;4385;48.848;8.924;2023-11-21T05:45:02;96836.28;;;17.19;100.00
8697;BME280;4385;48.848;8.924;2023-11-21T05:50:06;96836.25;;;17.20;100.00
8697;BME280;4385;48.848;8.924;2023-11-21T05:52:35;96825.94;;;17.25;100.00
8697;BME280;4385;48.848;8.924;2023-11-21T05:55:01;96844.63;;;17.24;100.00
8697;BME280;4385;48.848;8.924;2023-11-21T05:57:26;96841.22;;;17.25;100.00
8697;BME280;4385;48.848;8.924;2023-11-21T05:59:51;96843.72;;;17.27;100.00
8697;BME280;4385;48.848;8.924;2023-11-21T06:02:16;96848.75;;;17.28;100.00
8697;BME280;4385;48.848;8.924;2023-11-21T06:04:42;96837.69;;;17.29;100.00
8697;BME280;4385;48.848;8.924;2023-11-21T06:07:07;96849.53;;;17.30;100.00
8697;BME280;4385;48.848;8.924;2023-11-21T06:09:32;96851.09;;;17.36;100.00
8697;BME280;4385;48.848;8.924;2023-11-21T06:11:58;96849.41;;;17.35;100.00
8697;BME280;4385;48.848;8.924;2023-11-21T06:14:23;96860.34;;;17.39;100.00
8697;BME280;4385;48.848;8.924;2023-11-21T06:16:49;96865.38;;;17.42;100.00
8697;BME280;4385;48.848;8.924;2023-11-21T06:19:16;96857.69;;;17.43;100.00
8697;BME280;4385;48.848;8.924;2023-11-21T06:21:45;96859.28;;;17.46;100.00
8697;BME280;4385;48.848;8.924;2023-11-21T06:24:10;96857.56;;;17.48;100.00
8697;BME280;4385;48.848;8.924;2023-11-21T06:26:36;96860.91;;;17.50;100.00
8697;BME280;4385;48.848;8.924;2023-11-21T06:29:01;96863.41;;;17.52;100.00
8697;BME280;4385;48.848;8.924;2023-11-21T06:31:28;96863.41;;;17.52;100.00
8697;BME280;4385;48.848;8.924;2023-11-21T06:33:54;96861.72;;;17.51;100.00
8697;BME280;4385;48.848;8.924;2023-11-21T06:36:19;96863.38;;;17.53;100.00
8697;BME280;4385;48.848;8.924;2023-11-21T06:38:44;96867.59;;;17.53;100.00
8697;BME280;4385;48.848;8.924;2023-11-21T06:41:11;96871.81;;;17.54;100.00
8697;BME280;4385;48.848;8.924;2023-11-21T06:43:36;96881.19;;;17.53;100.00
8697;BME280;4385;48.848;8.924;2023-11-21T06:46:02;96886.28;;;17.53;100.00
8697;BME280;4385;48.848;8.924;2023-11-21T06:48:27;96878.69;;;17.52;100.00
8697;BME280;4385;48.848;8.924;2023-11-21T06:50:52;96883.78;;;17.52;100.00
8697;BME280;4385;48.848;8.924;2023-11-21T06:53:17;96887.19;;;17.51;100.00
8697;BME280;4385;48.848;8.924;2023-11-21T06:55:43;96885.53;;;17.50;100.00
8697;BME280;4385;48.848;8.924;2023-11-21T06:58:08;96898.25;;;17.50;100.00
8697;BME280;4385;48.848;8.924;2023-11-21T07:00:33;96900.81;;;17.50;100.00
8697;BME280;4385;48.848;8.924;2023-11-21T07:02:59;96895.72;;;17.50;100.00
8697;BME280;4385;48.848;8.924;2023-11-21T07:05:24;96907.66;;;17.48;100.00
8697;BME280;4385;48.848;8.924;2023-11-21T07:07:49;96901.66;;;17.50;100.00
8697;BME280;4385;48.848;8.924;2023-11-21T07:10:15;96905.09;;;17.48;100.00
8697;BME280;4385;48.848;8.924;2023-11-21T07:12:40;96906.06;;;17.43;100.00
8697;BME280;4385;48.848;8.924;2023-11-21T07:15:07;96907.00;;;17.41;100.00
8697;BME280;4385;48.848;8.924;2023-11-21T07:17:35;96911.25;;;17.40;100.00
8697;BME280;4385;48.848;8.924;2023-11-21T07:20:01;96915.41;;;17.43;100.00
8697;BME280;4385;48.848;8.924;2023-11-21T07:22:26;96917.88;;;17.46;100.00
8697;BME280;4385;48.848;8.924;2023-11-21T07:24:51;96926.31;;;17.48;100.00
8697;BME280;4385;48.848;8.924;2023-11-21T07:27:17;96935.53;;;17.52;100.00
8697;BME280;4385;48.848;8.924;2023-11-21T07:29:43;96923.59;;;17.54;100.00
8697;BME280;4385;48.848;8.924;2023-11-21T07:32:08;96934.56;;;17.58;100.00
8697;BME280;4385;48.848;8.924;2023-11-21T07:34:38;96936.19;;;17.61;100.00
8697;BME280;4385;48.848;8.924;2023-11-21T07:37:03;96942.84;;;17.65;100.00
8697;BME280;4385;48.848;8.924;2023-11-21T07:39:28;96934.25;;;17.69;100.00
8697;BME280;4385;48.848;8.924;2023-11-21T07:41:54;96944.31;;;17.74;100.00
8697;BME280;4385;48.848;8.924;2023-11-21T07:44:20;96934.91;;;17.76;100.00
8697;BME280;4385;48.848;8.924;2023-11-21T07:46:46;96947.56;;;17.79;100.00
8697;BME280;4385;48.848;8.924;2023-11-21T07:49:11;96944.13;;;17.81;100.00
8697;BME280;4385;48.848;8.924;2023-11-21T07:51:40;96947.25;;;17.90;100.00
8697;BME280;4385;48.848;8.924;2023-11-21T07:54:05;96951.41;;;17.94;100.00
8697;BME280;4385;48.848;8.924;2023-11-21T07:56:30;96953.75;;;18.02;100.00
8697;BME280;4385;48.848;8.924;2023-11-21T07:58:55;96955.41;;;18.03;100.00
8697;BME280;4385;48.848;8.924;2023-11-21T08:01:21;96955.31;;;18.06;100.00
8697;BME280;4385;48.848;8.924;2023-11-21T08:03:46;96960.38;;;18.07;100.00
8697;BME280;4385;48.848;8.924;2023-11-21T08:06:16;96959.56;;;18.05;100.00
8697;BME280;4385;48.848;8.924;2023-11-21T08:08:41;96963.81;;;18.06;100.00
8697;BME280;4385;48.848;8.924;2023-11-21T08:11:08;96962.91;;;18.07;100.00
8697;BME280;4385;48.848;8.924;2023-11-21T08:13:35;96961.22;;;18.08;100.00
8697;BME280;4385;48.848;8.924;2023-11-21T08:16:00;96966.25;;;18.11;100.00
8697;BME280;4385;48.848;8.924;2023-11-21T08:18:27;96962.78;;;18.14;100.00
8697;BME280;4385;48.848;8.924;2023-11-21T08:20:53;96961.03;;;18.16;100.00
8697;BME280;4385;48.848;8.924;2023-11-21T08:23:20;96962.69;;;18.17;100.00
8697;BME280;4385;48.848;8.924;2023-11-21T08:25:46;96959.19;;;18.19;100.00
8697;BME280;4385;48.848;8.924;2023-11-21T08:28:12;96961.69;;;18.21;100.00
8697;BME280;4385;48.848;8.924;2023-11-21T08:30:39;96963.34;;;18.24;100.00
8697;BME280;4385;48.848;8.924;2023-11-21T08:33:06;96959.84;;;18.26;100.00
8697;BME280;4385;48.848;8.924;2023-11-21T08:35:33;96966.56;;;18.29;100.00
8697;BME280;4385;48.848;8.924;2023-11-21T08:37:59;96969.91;;;18.31;100.00
8697;BME280;4385;48.848;8.924;2023-11-21T08:40:24;96976.63;;;18.34;100.00
8697;BME280;4385;48.848;8.924;2023-11-21T08:42:50;96971.41;;;18.38;100.00
8697;BME280;4385;48.848;8.924;2023-11-21T08:45:18;96974.88;;;18.36;100.00
8697;BME280;4385;48.848;8.924;2023-11-21T08:47:44;96974.88;;;18.36;100.00
8697;BME280;4385;48.848;8.924;2023-11-21T08:50:10;96978.22;;;18.38;100.00
8697;BME280;4385;48.848;8.924;2023-11-21T08:52:37;96984.91;;;18.42;100.00
8697;BME280;4385;48.848;8.924;2023-11-21T08:55:03;96988.22;;;18.46;100.00
8697;BME280;4385;48.848;8.924;2023-11-21T08:57:36;96986.41;;;18.48;100.00
8697;BME280;4385;48.848;8.924;2023-11-21T09:00:03;96988.00;;;18.52;100.00
8697;BME280;4385;48.848;8.924;2023-11-21T09:02:32;96983.63;;;18.55;100.00
8697;BME280;4385;48.848;8.924;2023-11-21T09:04:59;96982.69;;;18.60;100.00
8697;BME280;4385;48.848;8.924;2023-11-21T09:07:24;96985.13;;;18.63;100.00
8697;BME280;4385;48.848;8.924;2023-11-21T09:09:49;96992.56;;;18.71;100.00
8697;BME280;4385;48.848;8.924;2023-11-21T09:12:15;96996.72;;;18.73;100.00
8697;BME280;4385;48.848;8.924;2023-11-21T09:14:42;96994.97;;;18.75;100.00
8697;BME280;4385;48.848;8.924;2023-11-21T09:17:09;96996.53;;;18.79;100.00
8697;BME280;4385;48.848;8.924;2023-11-21T09:19:38;97003.19;;;18.84;100.00
8697;BME280;4385;48.848;8.924;2023-11-21T09:22:03;96999.69;;;18.88;100.00
8697;BME280;4385;48.848;8.924;2023-11-21T09:24:30;97003.78;;;18.92;100.00
8697;BME280;4385;48.848;8.924;2023-11-21T09:26:55;97010.47;;;18.96;100.00
8697;BME280;4385;48.848;8.924;2023-11-21T09:29:20;97012.09;;;18.99;100.00
8697;BME280;4385;48.848;8.924;2023-11-21T09:31:47;97017.94;;;19.02;100.00
8697;BME280;4385;48.848;8.924;2023-11-21T09:34:12;97017.78;;;19.07;100.00
8697;BME280;4385;48.848;8.924;2023-11-21T09:36:38;97022.78;;;19.12;100.00
8697;BME280;4385;48.848;8.924;2023-11-21T09:39:04;97032.84;;;19.16;100.00
8697;BME280;4385;48.848;8.924;2023-11-21T09:41:40;97026.03;;;19.17;100.00
8697;BME280;4385;48.848;8.924;2023-11-21T09:44:13;97030.19;;;19.19;100.00
8697;BME280;4385;48.848;8.924;2023-11-21T09:46:41;97025.81;;;19.23;100.00
8697;BME280;4385;48.848;8.924;2023-11-21T09:49:09;97027.53;;;19.23;100.00
8697;BME280;4385;48.848;8.924;2023-11-21T09:51:42;97032.53;;;19.26;100.00
8697;BME280;4385;48.848;8.924;2023-11-21T09:54:09;97034.19;;;19.28;100.00
8697;BME280;4385;48.848;8.924;2023-11-21T09:56:37;97038.34;;;19.31;100.00
8697;BME280;4385;48.848;8.924;2023-11-21T09:59:03;97031.47;;;19.33;100.00
8697;BME280;4385;48.848;8.924;2023-11-21T10:01:36;97028.13;;;19.31;100.00
8697;BME280;4385;48.848;8.924;2023-11-21T10:04:02;97027.38;;;19.27;100.00
8697;BME280;4385;48.848;8.924;2023-11-21T10:06:28;97029.97;;;19.26;100.00
8697;BME280;4385;48.848;8.924;2023-11-21T10:08:55;97027.28;;;19.30;100.00
8697;BME280;4385;48.848;8.924;2023-11-21T10:11:24;97031.47;;;19.33;100.00
8697;BME280;4385;48.848;8.924;2023-11-21T10:13:52;97023.06;;;19.29;100.00
8697;BME280;4385;48.848;8.924;2023-11-21T10:16:19;97036.69;;;19.30;100.00
8697;BME280;4385;48.848;8.924;2023-11-21T10:18:47;97028.97;;;19.31;100.00
8697;BME280;4385;48.848;8.924;2023-11-21T10:21:13;97033.97;;;19.35;100.00
8697;BME280;4385;48.848;8.924;2023-11-21T10:23:39;97035.63;;;19.36;100.00
8697;BME280;4385;48.848;8.924;2023-11-21T10:26:06;97030.44;;;19.39;100.00
8697;BME280;4385;48.848;8.924;2023-11-21T10:28:35;97032.94;;;19.40;100.00
8697;BME280;4385;48.848;8.924;2023-11-21T10:31:02;97034.47;;;19.44;100.00
8697;BME280;4385;48.848;8.924;2023-11-21T10:33:28;97033.56;;;19.47;100.00
8697;BME280;4385;48.848;8.924;2023-11-21T10:35:55;97036.06;;;19.49;100.00
8697;BME280;4385;48.848;8.924;2023-11-21T10:38:21;97040.28;;;19.50;100.00
8697;BME280;4385;48.848;8.924;2023-11-21T10:40:50;97041.13;;;19.50;100.00
8697;BME280;4385;48.848;8.924;2023-11-21T10:43:16;97049.56;;;19.52;100.00
8697;BME280;4385;48.848;8.924;2023-11-21T10:45:42;97048.59;;;19.56;100.00
8697;BME280;4385;48.848;8.924;2023-11-21T10:48:09;97038.38;;;19.56;100.00
8697;BME280;4385;48.848;8.924;2023-11-21T10:50:36;97041.75;;;19.57;100.00
8697;BME280;4385;48.848;8.924;2023-11-21T10:53:05;97043.47;;;19.56;100.00
8697;BME280;4385;48.848;8.924;2023-11-21T10:55:32;97045.13;;;19.58;100.00
8697;BME280;4385;48.848;8.924;2023-11-21T10:58:02;97040.97;;;19.55;100.00
8697;BME280;4385;48.848;8.924;2023-11-21T11:00:30;97039.28;;;19.54;100.00
8697;BME280;4385;48.848;8.924;2023-11-21T11:02:56;97041.88;;;19.52;100.00
8697;BME280;4385;48.848;8.924;2023-11-21T11:05:24;97045.34;;;19.51;100.00
8697;BME280;4385;48.848;8.924;2023-11-21T11:07:58;97049.66;;;19.49;100.00
8697;BME280;4385;48.848;8.924;2023-11-21T11:10:26;97044.44;;;19.52;100.00
8697;BME280;4385;48.848;8.924;2023-11-21T11:12:53;97050.44;;;19.51;100.00
8697;BME280;4385;48.848;8.924;2023-11-21T11:15:19;97045.44;;;19.48;100.00
8697;BME280;4385;48.848;8.924;2023-11-21T11:17:46;97050.44;;;19.51;100.00
8697;BME280;4385;48.848;8.924;2023-11-21T11:20:12;97049.72;;;19.48;100.00
8697;BME280;4385;48.848;8.924;2023-11-21T11:22:46;97058.22;;;19.48;100.00
8697;BME280;4385;48.848;8.924;2023-11-21T11:25:27;97059.13;;;19.47;100.00
8697;BME280;4385;48.848;8.924;2023-11-21T11:28:22;97057.44;;;19.46;100.00
8697;BME280;4385;48.848;8.924;2023-11-21T11:33:36;97057.53;;;19.43;100.00
8697;BME280;4385;48.848;8.924;2023-11-21T11:36:10;97059.28;;;19.42;100.00
8697;BME280;4385;48.848;8.924;2023-11-21T11:38:38;97064.34;;;19.44;100.00
8697;BME280;4385;48.848;8.924;2023-11-21T11:41:05;97060.88;;;19.45;100.00
8697;BME280;4385;48.848;8.924;2023-11-21T11:43:31;97065.28;;;19.40;100.00
8697;BME280;4385;48.848;8.924;2023-11-21T11:46:10;97066.19;;;19.39;100.00
8697;BME280;4385;48.848;8.924;2023-11-21T11:48:39;97073.06;;;19.37;100.00
8697;BME280;4385;48.848;8.924;2023-11-21T11:51:12;97065.44;;;19.35;100.00
8697;BME280;4385;48.848;8.924;2023-11-21T11:53:44;97068.91;;;19.34;100.00
8697;BME280;4385;48.848;8.924;2023-11-21T11:56:29;97064.72;;;19.31;100.00
8697;BME280;4385;48.848;8.924;2023-11-21T11:58:58;97063.88;;;19.31;100.00
8697;BME280;4385;48.848;8.924;2023-11-21T12:01:25;97064.84;;;19.28;100.00
8697;BME280;4385;48.848;8.924;2023-11-21T12:07:00;97064.84;;;19.28;100.00
8697;BME280;4385;48.848;8.924;2023-11-21T12:09:28;97063.84;;;19.33;100.00
8697;BME280;4385;48.848;8.924;2023-11-21T12:11:54;97066.50;;;19.29;100.00
8697;BME280;4385;48.848;8.924;2023-11-21T12:14:22;97069.94;;;19.28;100.00
8697;BME280;4385;48.848;8.924;2023-11-21T12:16:47;97069.16;;;19.26;100.00
8697;BME280;4385;48.848;8.924;2023-11-21T12:19:13;97072.59;;;19.25;100.00
8697;BME280;4385;48.848;8.924;2023-11-21T12:21:38;97070.94;;;19.23;100.00
8697;BME280;4385;48.848;8.924;2023-11-21T12:24:06;97077.81;;;19.22;100.00
8697;BME280;4385;48.848;8.924;2023-11-21T12:26:34;97077.81;;;19.22;100.00
8697;BME280;4385;48.848;8.924;2023-11-21T12:28:59;97070.13;;;19.22;100.00
8697;BME280;4385;48.848;8.924;2023-11-21T12:31:25;97071.84;;;19.22;100.00
8697;BME280;4385;48.848;8.924;2023-11-21T12:33:50;97075.25;;;19.22;100.00
8697;BME280;4385;48.848;8.924;2023-11-21T12:36:16;97072.66;;;19.24;100.00
8697;BME280;4385;48.848;8.924;2023-11-21T12:38:41;97076.00;;;19.24;100.00
8697;BME280;4385;48.848;8.924;2023-11-21T12:41:07;97085.38;;;19.25;100.00
8697;BME280;4385;48.848;8.924;2023-11-21T12:43:33;97079.38;;;19.26;100.00
8697;BME280;4385;48.848;8.924;2023-11-21T12:46:07;97088.69;;;19.27;100.00
8697;BME280;4385;48.848;8.924;2023-11-21T12:48:32;97086.13;;;19.27;100.00
8697;BME280;4385;48.848;8.924;2023-11-21T12:50:58;97084.44;;;19.28;100.00
8697;BME280;4385;48.848;8.924;2023-11-21T12:53:26;97085.25;;;19.28;100.00
8697;BME280;4385;48.848;8.924;2023-11-21T12:55:51;97088.69;;;19.27;100.00
8697;BME280;4385;48.848;8.924;2023-11-21T12:58:17;97091.25;;;19.27;100.00
8697;BME280;4385;48.848;8.924;2023-11-21T13:00:46;97104.00;;;19.27;100.00
8697;BME280;4385;48.848;8.924;2023-11-21T13:03:14;97106.56;;;19.27;100.00
8697;BME280;4385;48.848;8.924;2023-11-21T13:05:46;97094.69;;;19.26;100.00
8697;BME280;4385;48.848;8.924;2023-11-21T13:08:12;97105.81;;;19.25;100.00
8697;BME280;4385;48.848;8.924;2023-11-21T13:10:43;97097.28;;;19.25;100.00
8697;BME280;4385;48.848;8.924;2023-11-21T13:13:12;97114.31;;;19.24;100.00
8697;BME280;4385;48.848;8.924;2023-11-21T13:15:50;97115.22;;;19.23;100.00